sensor_id;sensor_type;location;lat;lon;timestamp;P1;durP1;ratioP1;P2;durP2;ratioP2
72092;SDS011;59965;48.192;11.618;2022-08-01T00:01:24;3.73;;;1.43;;
72092;SDS011;59965;48.192;11.618;2022-08-01T00:03:50;1.20;;;1.10;;
72092;SDS011;59965;48.192;11.618;2022-08-01T00:06:16;5.70;;;1.77;;
72092;SDS011;59965;48.192;11.618;2022-08-01T00:08:42;2.43;;;1.60;;
72092;SDS011;59965;48.192;11.618;2022-08-01T00:11:07;1.10;;;1.00;;
72092;SDS011;59965;48.192;11.618;2022-08-01T00:13:34;3.77;;;1.60;;
72092;SDS011;59965;48.192;11.618;2022-08-01T00:16:00;5.10;;;2.20;;
72092;SDS011;59965;48.192;11.618;2022-08-01T00:18:26;2.93;;;1.80;;
72092;SDS011;59965;48.192;11.618;2022-08-01T00:20:52;1.83;;;1.40;;
72092;SDS011;59965;48.192;11.618;2022-08-01T00:23:17;3.30;;;2.00;;
72092;SDS011;59965;48.192;11.618;2022-08-01T00:25:43;3.50;;;2.20;;
72092;SDS011;59965;48.192;11.618;2022-08-01T00:28:09;1.73;;;1.60;;
72092;SDS011;59965;48.192;11.618;2022-08-01T00:30:35;1.80;;;1.50;;
72092;SDS011;59965;48.192;11.618;2022-08-01T00:33:01;1.70;;;1.50;;
72092;SDS011;59965;48.192;11.618;2022-08-01T00:35:27;2.40;;;1.53;;
72092;SDS011;59965;48.192;11.618;2022-08-01T00:37:53;1.80;;;1.60;;
72092;SDS011;59965;48.192;11.618;2022-08-01T00:40:19;1.83;;;1.33;;
72092;SDS011;59965;48.192;11.618;2022-08-01T00:42:44;3.67;;;1.40;;
72092;SDS011;59965;48.192;11.618;2022-08-01T00:45:10;2.00;;;1.33;;
72092;SDS011;59965;48.192;11.618;2022-08-01T00:47:37;2.07;;;1.30;;
72092;SDS011;59965;48.192;11.618;2022-08-01T00:50:03;2.03;;;1.60;;
72092;SDS011;59965;48.192;11.618;2022-08-01T00:52:30;2.17;;;1.50;;
72092;SDS011;59965;48.192;11.618;2022-08-01T00:54:56;1.60;;;1.33;;
72092;SDS011;59965;48.192;11.618;2022-08-01T00:57:22;2.40;;;1.67;;
72092;SDS011;59965;48.192;11.618;2022-08-01T00:59:48;3.10;;;1.50;;
72092;SDS011;59965;48.192;11.618;2022-08-01T01:02:13;2.07;;;1.60;;
72092;SDS011;59965;48.192;11.618;2022-08-01T01:04:39;1.20;;;1.07;;
72092;SDS011;59965;48.192;11.618;2022-08-01T01:09:50;2.77;;;1.50;;
72092;SDS011;59965;48.192;11.618;2022-08-01T01:12:27;1.93;;;1.60;;
72092;SDS011;59965;48.192;11.618;2022-08-01T01:17:37;2.80;;;1.70;;
72092;SDS011;59965;48.192;11.618;2022-08-01T01:20:06;1.13;;;1.03;;
72092;SDS011;59965;48.192;11.618;2022-08-01T01:25:18;3.53;;;1.80;;
72092;SDS011;59965;48.192;11.618;2022-08-01T01:27:50;2.47;;;1.70;;
72092;SDS011;59965;48.192;11.618;2022-08-01T01:30:28;2.93;;;1.93;;
72092;SDS011;59965;48.192;11.618;2022-08-01T01:32:56;1.80;;;1.70;;
72092;SDS011;59965;48.192;11.618;2022-08-01T01:35:29;1.30;;;1.20;;
72092;SDS011;59965;48.192;11.618;2022-08-01T01:38:16;2.33;;;1.67;;
72092;SDS011;59965;48.192;11.618;2022-08-01T01:40:44;7.73;;;2.63;;
72092;SDS011;59965;48.192;11.618;2022-08-01T01:43:11;3.00;;;1.97;;
72092;SDS011;59965;48.192;11.618;2022-08-01T01:45:37;2.33;;;1.50;;
72092;SDS011;59965;48.192;11.618;2022-08-01T01:48:04;2.57;;;1.50;;
72092;SDS011;59965;48.192;11.618;2022-08-01T01:50:31;1.70;;;1.30;;
72092;SDS011;59965;48.192;11.618;2022-08-01T01:52:57;1.80;;;1.67;;
72092;SDS011;59965;48.192;11.618;2022-08-01T01:55:24;1.50;;;1.40;;
72092;SDS011;59965;48.192;11.618;2022-08-01T01:57:51;2.33;;;1.67;;
72092;SDS011;59965;48.192;11.618;2022-08-01T02:00:17;4.37;;;1.37;;
72092;SDS011;59965;48.192;11.618;2022-08-01T02:02:43;1.87;;;1.70;;
72092;SDS011;59965;48.192;11.618;2022-08-01T02:05:10;2.30;;;1.63;;
72092;SDS011;59965;48.192;11.618;2022-08-01T02:07:37;1.30;;;1.20;;
72092;SDS011;59965;48.192;11.618;2022-08-01T02:10:04;5.70;;;2.07;;
72092;SDS011;59965;48.192;11.618;2022-08-01T02:12:32;1.60;;;1.20;;
72092;SDS011;59965;48.192;11.618;2022-08-01T02:14:59;3.77;;;1.63;;
72092;SDS011;59965;48.192;11.618;2022-08-01T02:17:25;2.27;;;1.40;;
72092;SDS011;59965;48.192;11.618;2022-08-01T02:19:52;2.70;;;1.67;;
72092;SDS011;59965;48.192;11.618;2022-08-01T02:22:20;1.60;;;1.50;;
72092;SDS011;59965;48.192;11.618;2022-08-01T02:25:02;2.73;;;2.27;;
72092;SDS011;59965;48.192;11.618;2022-08-01T02:30:06;1.83;;;1.27;;
72092;SDS011;59965;48.192;11.618;2022-08-01T02:32:44;2.10;;;1.83;;
72092;SDS011;59965;48.192;11.618;2022-08-01T02:35:27;2.37;;;1.70;;
72092;SDS011;59965;48.192;11.618;2022-08-01T02:37:54;3.73;;;1.73;;
72092;SDS011;59965;48.192;11.618;2022-08-01T02:40:21;2.07;;;1.57;;
72092;SDS011;59965;48.192;11.618;2022-08-01T02:42:47;1.53;;;1.40;;
72092;SDS011;59965;48.192;11.618;2022-08-01T02:45:17;2.13;;;1.50;;
72092;SDS011;59965;48.192;11.618;2022-08-01T02:47:43;2.80;;;1.80;;
72092;SDS011;59965;48.192;11.618;2022-08-01T02:50:10;2.03;;;1.80;;
72092;SDS011;59965;48.192;11.618;2022-08-01T02:52:37;2.10;;;1.83;;
72092;SDS011;59965;48.192;11.618;2022-08-01T02:55:04;2.80;;;1.90;;
72092;SDS011;59965;48.192;11.618;2022-08-01T02:57:31;3.20;;;1.77;;
72092;SDS011;59965;48.192;11.618;2022-08-01T02:59:58;2.37;;;2.03;;
72092;SDS011;59965;48.192;11.618;2022-08-01T03:02:24;2.30;;;1.87;;
72092;SDS011;59965;48.192;11.618;2022-08-01T03:04:51;2.30;;;2.07;;
72092;SDS011;59965;48.192;11.618;2022-08-01T03:07:17;2.87;;;2.13;;
72092;SDS011;59965;48.192;11.618;2022-08-01T03:09:45;2.53;;;2.00;;
72092;SDS011;59965;48.192;11.618;2022-08-01T03:12:13;2.53;;;2.17;;
72092;SDS011;59965;48.192;11.618;2022-08-01T03:14:41;2.17;;;1.97;;
72092;SDS011;59965;48.192;11.618;2022-08-01T03:17:08;1.97;;;1.43;;
72092;SDS011;59965;48.192;11.618;2022-08-01T03:19:35;2.43;;;1.80;;
72092;SDS011;59965;48.192;11.618;2022-08-01T03:22:03;2.43;;;1.80;;
72092;SDS011;59965;48.192;11.618;2022-08-01T03:24:32;3.00;;;2.00;;
72092;SDS011;59965;48.192;11.618;2022-08-01T03:26:58;1.70;;;1.60;;
72092;SDS011;59965;48.192;11.618;2022-08-01T03:29:25;4.00;;;1.63;;
72092;SDS011;59965;48.192;11.618;2022-08-01T03:31:52;3.10;;;1.63;;
72092;SDS011;59965;48.192;11.618;2022-08-01T03:34:18;2.13;;;1.90;;
72092;SDS011;59965;48.192;11.618;2022-08-01T03:36:48;2.93;;;1.57;;
72092;SDS011;59965;48.192;11.618;2022-08-01T03:39:19;3.90;;;1.77;;
72092;SDS011;59965;48.192;11.618;2022-08-01T03:41:53;7.40;;;1.83;;
72092;SDS011;59965;48.192;11.618;2022-08-01T03:44:23;3.13;;;1.60;;
72092;SDS011;59965;48.192;11.618;2022-08-01T03:46:56;2.33;;;1.63;;
72092;SDS011;59965;48.192;11.618;2022-08-01T03:49:28;4.00;;;2.60;;
72092;SDS011;59965;48.192;11.618;2022-08-01T03:51:55;8.17;;;2.23;;
72092;SDS011;59965;48.192;11.618;2022-08-01T03:54:23;4.40;;;2.20;;
72092;SDS011;59965;48.192;11.618;2022-08-01T03:56:50;2.00;;;1.80;;
72092;SDS011;59965;48.192;11.618;2022-08-01T03:59:16;2.33;;;1.70;;
72092;SDS011;59965;48.192;11.618;2022-08-01T04:01:44;3.27;;;2.13;;
72092;SDS011;59965;48.192;11.618;2022-08-01T04:04:11;2.53;;;1.80;;
72092;SDS011;59965;48.192;11.618;2022-08-01T04:06:37;1.60;;;1.27;;
72092;SDS011;59965;48.192;11.618;2022-08-01T04:09:04;2.80;;;2.13;;
72092;SDS011;59965;48.192;11.618;2022-08-01T04:11:29;5.30;;;2.17;;
72092;SDS011;59965;48.192;11.618;2022-08-01T04:13:55;2.80;;;1.77;;
72092;SDS011;59965;48.192;11.618;2022-08-01T04:16:22;3.60;;;1.77;;
72092;SDS011;59965;48.192;11.618;2022-08-01T04:18:48;4.23;;;2.03;;
72092;SDS011;59965;48.192;11.618;2022-08-01T04:21:14;4.70;;;2.17;;
72092;SDS011;59965;48.192;11.618;2022-08-01T04:23:43;4.23;;;2.27;;
72092;SDS011;59965;48.192;11.618;2022-08-01T04:26:10;2.50;;;1.53;;
72092;SDS011;59965;48.192;11.618;2022-08-01T04:28:37;2.97;;;2.00;;
72092;SDS011;59965;48.192;11.618;2022-08-01T04:31:06;2.57;;;1.80;;
72092;SDS011;59965;48.192;11.618;2022-08-01T04:33:34;7.23;;;2.20;;
72092;SDS011;59965;48.192;11.618;2022-08-01T04:36:03;2.50;;;2.30;;
72092;SDS011;59965;48.192;11.618;2022-08-01T04:38:30;5.83;;;2.80;;
72092;SDS011;59965;48.192;11.618;2022-08-01T04:40:57;2.97;;;1.80;;
72092;SDS011;59965;48.192;11.618;2022-08-01T04:43:24;2.57;;;1.90;;
72092;SDS011;59965;48.192;11.618;2022-08-01T04:45:50;3.37;;;2.17;;
72092;SDS011;59965;48.192;11.618;2022-08-01T04:48:16;3.50;;;2.33;;
72092;SDS011;59965;48.192;11.618;2022-08-01T04:50:46;3.70;;;2.07;;
72092;SDS011;59965;48.192;11.618;2022-08-01T04:53:13;4.10;;;2.40;;
72092;SDS011;59965;48.192;11.618;2022-08-01T04:55:45;4.77;;;2.47;;
72092;SDS011;59965;48.192;11.618;2022-08-01T04:58:11;3.30;;;2.03;;
72092;SDS011;59965;48.192;11.618;2022-08-01T05:00:38;2.67;;;2.10;;
72092;SDS011;59965;48.192;11.618;2022-08-01T05:03:03;2.60;;;1.97;;
72092;SDS011;59965;48.192;11.618;2022-08-01T05:05:29;2.40;;;2.00;;
72092;SDS011;59965;48.192;11.618;2022-08-01T05:07:56;6.73;;;2.47;;
72092;SDS011;59965;48.192;11.618;2022-08-01T05:10:22;4.67;;;2.17;;
72092;SDS011;59965;48.192;11.618;2022-08-01T05:12:48;2.13;;;1.80;;
72092;SDS011;59965;48.192;11.618;2022-08-01T05:15:14;2.97;;;2.00;;
72092;SDS011;59965;48.192;11.618;2022-08-01T05:17:39;2.90;;;2.27;;
72092;SDS011;59965;48.192;11.618;2022-08-01T05:20:07;2.40;;;1.90;;
72092;SDS011;59965;48.192;11.618;2022-08-01T05:22:33;2.43;;;2.23;;
72092;SDS011;59965;48.192;11.618;2022-08-01T05:24:59;2.23;;;1.67;;
72092;SDS011;59965;48.192;11.618;2022-08-01T05:27:25;2.60;;;2.00;;
72092;SDS011;59965;48.192;11.618;2022-08-01T05:29:51;2.20;;;1.70;;
72092;SDS011;59965;48.192;11.618;2022-08-01T05:32:17;3.03;;;1.53;;
72092;SDS011;59965;48.192;11.618;2022-08-01T05:34:42;2.27;;;1.57;;
72092;SDS011;59965;48.192;11.618;2022-08-01T05:37:08;2.43;;;1.93;;
72092;SDS011;59965;48.192;11.618;2022-08-01T05:39:34;3.80;;;2.70;;
72092;SDS011;59965;48.192;11.618;2022-08-01T05:42:00;5.73;;;2.50;;
72092;SDS011;59965;48.192;11.618;2022-08-01T05:44:26;2.90;;;2.10;;
72092;SDS011;59965;48.192;11.618;2022-08-01T05:46:52;3.80;;;2.30;;
72092;SDS011;59965;48.192;11.618;2022-08-01T05:49:17;2.50;;;1.73;;
72092;SDS011;59965;48.192;11.618;2022-08-01T05:51:43;1.90;;;1.67;;
72092;SDS011;59965;48.192;11.618;2022-08-01T05:54:09;3.60;;;2.80;;
72092;SDS011;59965;48.192;11.618;2022-08-01T05:56:35;2.67;;;2.20;;
72092;SDS011;59965;48.192;11.618;2022-08-01T05:59:00;3.03;;;2.37;;
72092;SDS011;59965;48.192;11.618;2022-08-01T06:01:26;2.83;;;1.77;;
72092;SDS011;59965;48.192;11.618;2022-08-01T06:03:52;3.23;;;2.40;;
72092;SDS011;59965;48.192;11.618;2022-08-01T06:06:19;3.17;;;2.27;;
72092;SDS011;59965;48.192;11.618;2022-08-01T06:08:46;5.50;;;2.17;;
72092;SDS011;59965;48.192;11.618;2022-08-01T06:11:11;4.90;;;2.40;;
72092;SDS011;59965;48.192;11.618;2022-08-01T06:13:37;2.47;;;1.97;;
72092;SDS011;59965;48.192;11.618;2022-08-01T06:16:03;2.30;;;1.77;;
72092;SDS011;59965;48.192;11.618;2022-08-01T06:18:29;5.07;;;2.50;;
72092;SDS011;59965;48.192;11.618;2022-08-01T06:20:55;3.00;;;1.70;;
72092;SDS011;59965;48.192;11.618;2022-08-01T06:23:21;2.30;;;1.97;;
72092;SDS011;59965;48.192;11.618;2022-08-01T06:25:47;1.90;;;1.70;;
72092;SDS011;59965;48.192;11.618;2022-08-01T06:28:13;2.30;;;2.10;;
72092;SDS011;59965;48.192;11.618;2022-08-01T06:30:38;5.57;;;2.13;;
72092;SDS011;59965;48.192;11.618;2022-08-01T06:33:04;4.27;;;2.10;;
72092;SDS011;59965;48.192;11.618;2022-08-01T06:35:30;2.20;;;2.00;;
72092;SDS011;59965;48.192;11.618;2022-08-01T06:37:56;2.30;;;1.93;;
72092;SDS011;59965;48.192;11.618;2022-08-01T06:40:22;5.53;;;2.10;;
72092;SDS011;59965;48.192;11.618;2022-08-01T06:42:48;3.90;;;2.20;;
72092;SDS011;59965;48.192;11.618;2022-08-01T06:45:14;4.70;;;2.30;;
72092;SDS011;59965;48.192;11.618;2022-08-01T06:47:41;1.73;;;1.60;;
72092;SDS011;59965;48.192;11.618;2022-08-01T06:50:08;2.60;;;2.03;;
72092;SDS011;59965;48.192;11.618;2022-08-01T06:52:34;27.23;;;5.23;;
72092;SDS011;59965;48.192;11.618;2022-08-01T06:55:00;7.70;;;2.40;;
72092;SDS011;59965;48.192;11.618;2022-08-01T06:57:26;2.97;;;1.90;;
72092;SDS011;59965;48.192;11.618;2022-08-01T06:59:52;4.03;;;2.13;;
72092;SDS011;59965;48.192;11.618;2022-08-01T07:02:18;1.63;;;1.53;;
72092;SDS011;59965;48.192;11.618;2022-08-01T07:04:44;3.33;;;2.50;;
72092;SDS011;59965;48.192;11.618;2022-08-01T07:07:10;2.67;;;1.90;;
72092;SDS011;59965;48.192;11.618;2022-08-01T07:09:36;2.90;;;1.90;;
72092;SDS011;59965;48.192;11.618;2022-08-01T07:12:02;2.30;;;2.10;;
72092;SDS011;59965;48.192;11.618;2022-08-01T07:14:29;7.47;;;3.20;;
72092;SDS011;59965;48.192;11.618;2022-08-01T07:16:54;7.30;;;3.90;;
72092;SDS011;59965;48.192;11.618;2022-08-01T07:19:20;2.70;;;2.37;;
72092;SDS011;59965;48.192;11.618;2022-08-01T07:21:46;6.23;;;3.50;;
72092;SDS011;59965;48.192;11.618;2022-08-01T07:24:13;3.53;;;2.20;;
72092;SDS011;59965;48.192;11.618;2022-08-01T07:26:40;6.70;;;3.00;;
72092;SDS011;59965;48.192;11.618;2022-08-01T07:29:07;6.80;;;3.83;;
72092;SDS011;59965;48.192;11.618;2022-08-01T07:31:32;7.53;;;3.87;;
72092;SDS011;59965;48.192;11.618;2022-08-01T07:33:58;3.50;;;2.60;;
72092;SDS011;59965;48.192;11.618;2022-08-01T07:36:24;5.13;;;3.60;;
72092;SDS011;59965;48.192;11.618;2022-08-01T07:38:49;3.10;;;2.73;;
72092;SDS011;59965;48.192;11.618;2022-08-01T07:41:15;4.67;;;2.30;;
72092;SDS011;59965;48.192;11.618;2022-08-01T07:43:41;7.13;;;2.50;;
72092;SDS011;59965;48.192;11.618;2022-08-01T07:46:07;3.10;;;1.60;;
72092;SDS011;59965;48.192;11.618;2022-08-01T07:48:33;2.80;;;1.50;;
72092;SDS011;59965;48.192;11.618;2022-08-01T07:50:58;3.60;;;2.80;;
72092;SDS011;59965;48.192;11.618;2022-08-01T07:53:24;3.07;;;2.43;;
72092;SDS011;59965;48.192;11.618;2022-08-01T07:55:50;4.53;;;2.30;;
72092;SDS011;59965;48.192;11.618;2022-08-01T07:58:16;3.80;;;2.50;;
72092;SDS011;59965;48.192;11.618;2022-08-01T08:00:42;5.40;;;2.67;;
72092;SDS011;59965;48.192;11.618;2022-08-01T08:03:08;4.37;;;2.30;;
72092;SDS011;59965;48.192;11.618;2022-08-01T08:05:34;2.33;;;2.10;;
72092;SDS011;59965;48.192;11.618;2022-08-01T08:08:07;3.10;;;2.47;;
72092;SDS011;59965;48.192;11.618;2022-08-01T08:10:33;3.00;;;2.70;;
72092;SDS011;59965;48.192;11.618;2022-08-01T08:13:00;3.20;;;2.40;;
72092;SDS011;59965;48.192;11.618;2022-08-01T08:15:28;3.40;;;2.43;;
72092;SDS011;59965;48.192;11.618;2022-08-01T08:17:54;3.37;;;2.73;;
72092;SDS011;59965;48.192;11.618;2022-08-01T08:20:20;2.80;;;2.30;;
72092;SDS011;59965;48.192;11.618;2022-08-01T08:22:54;3.30;;;2.23;;
72092;SDS011;59965;48.192;11.618;2022-08-01T08:25:20;4.73;;;2.73;;
72092;SDS011;59965;48.192;11.618;2022-08-01T08:27:47;3.30;;;2.10;;
72092;SDS011;59965;48.192;11.618;2022-08-01T08:30:13;2.90;;;2.53;;
72092;SDS011;59965;48.192;11.618;2022-08-01T08:32:39;4.57;;;2.30;;
72092;SDS011;59965;48.192;11.618;2022-08-01T08:35:05;3.70;;;2.30;;
72092;SDS011;59965;48.192;11.618;2022-08-01T08:37:31;2.70;;;2.40;;
72092;SDS011;59965;48.192;11.618;2022-08-01T08:39:57;2.33;;;2.03;;
72092;SDS011;59965;48.192;11.618;2022-08-01T08:42:23;2.63;;;2.07;;
72092;SDS011;59965;48.192;11.618;2022-08-01T08:44:49;3.00;;;2.50;;
72092;SDS011;59965;48.192;11.618;2022-08-01T08:47:15;3.07;;;2.37;;
72092;SDS011;59965;48.192;11.618;2022-08-01T08:49:44;4.47;;;2.23;;
72092;SDS011;59965;48.192;11.618;2022-08-01T08:52:10;2.43;;;1.90;;
72092;SDS011;59965;48.192;11.618;2022-08-01T08:54:37;3.00;;;2.47;;
72092;SDS011;59965;48.192;11.618;2022-08-01T08:57:03;3.47;;;2.40;;
72092;SDS011;59965;48.192;11.618;2022-08-01T08:59:30;2.40;;;2.20;;
72092;SDS011;59965;48.192;11.618;2022-08-01T09:01:57;6.23;;;2.60;;
72092;SDS011;59965;48.192;11.618;2022-08-01T09:04:23;2.47;;;1.90;;
72092;SDS011;59965;48.192;11.618;2022-08-01T09:06:49;2.83;;;2.50;;
72092;SDS011;59965;48.192;11.618;2022-08-01T09:09:16;2.00;;;1.80;;
72092;SDS011;59965;48.192;11.618;2022-08-01T09:11:42;3.47;;;2.30;;
72092;SDS011;59965;48.192;11.618;2022-08-01T09:16:47;2.80;;;1.83;;
72092;SDS011;59965;48.192;11.618;2022-08-01T09:19:25;3.07;;;2.40;;
72092;SDS011;59965;48.192;11.618;2022-08-01T09:22:04;4.13;;;1.80;;
72092;SDS011;59965;48.192;11.618;2022-08-01T09:24:32;1.90;;;1.70;;
72092;SDS011;59965;48.192;11.618;2022-08-01T09:26:58;3.50;;;2.40;;
72092;SDS011;59965;48.192;11.618;2022-08-01T09:29:28;3.10;;;2.00;;
72092;SDS011;59965;48.192;11.618;2022-08-01T09:31:56;1.50;;;1.37;;
72092;SDS011;59965;48.192;11.618;2022-08-01T09:34:30;1.73;;;1.43;;
72092;SDS011;59965;48.192;11.618;2022-08-01T09:36:59;2.37;;;1.60;;
72092;SDS011;59965;48.192;11.618;2022-08-01T09:39:27;1.77;;;1.20;;
72092;SDS011;59965;48.192;11.618;2022-08-01T09:41:55;4.40;;;2.13;;
72092;SDS011;59965;48.192;11.618;2022-08-01T09:44:41;4.70;;;2.07;;
72092;SDS011;59965;48.192;11.618;2022-08-01T09:47:10;4.10;;;1.57;;
72092;SDS011;59965;48.192;11.618;2022-08-01T09:49:37;2.07;;;1.63;;
72092;SDS011;59965;48.192;11.618;2022-08-01T09:52:16;2.53;;;2.33;;
72092;SDS011;59965;48.192;11.618;2022-08-01T09:54:52;2.60;;;1.67;;
72092;SDS011;59965;48.192;11.618;2022-08-01T09:57:20;2.27;;;1.77;;
72092;SDS011;59965;48.192;11.618;2022-08-01T09:59:47;1.70;;;1.50;;
72092;SDS011;59965;48.192;11.618;2022-08-01T10:02:26;2.63;;;1.37;;
72092;SDS011;59965;48.192;11.618;2022-08-01T10:04:52;3.57;;;1.97;;
72092;SDS011;59965;48.192;11.618;2022-08-01T10:07:19;1.50;;;1.30;;
72092;SDS011;59965;48.192;11.618;2022-08-01T10:09:46;1.70;;;1.60;;
72092;SDS011;59965;48.192;11.618;2022-08-01T10:12:14;1.97;;;1.63;;
72092;SDS011;59965;48.192;11.618;2022-08-01T10:14:41;1.60;;;1.17;;
72092;SDS011;59965;48.192;11.618;2022-08-01T10:17:15;2.67;;;1.87;;
72092;SDS011;59965;48.192;11.618;2022-08-01T10:19:42;2.20;;;1.50;;
72092;SDS011;59965;48.192;11.618;2022-08-01T10:22:09;3.37;;;1.70;;
72092;SDS011;59965;48.192;11.618;2022-08-01T10:24:37;6.87;;;2.13;;
72092;SDS011;59965;48.192;11.618;2022-08-01T10:27:06;1.53;;;1.30;;
72092;SDS011;59965;48.192;11.618;2022-08-01T10:30:15;2.20;;;1.40;;
72092;SDS011;59965;48.192;11.618;2022-08-01T10:32:25;2.73;;;1.60;;
72092;SDS011;59965;48.192;11.618;2022-08-01T10:34:52;2.33;;;1.60;;
72092;SDS011;59965;48.192;11.618;2022-08-01T10:37:18;3.20;;;1.47;;
72092;SDS011;59965;48.192;11.618;2022-08-01T10:39:43;1.60;;;1.50;;
72092;SDS011;59965;48.192;11.618;2022-08-01T10:42:10;2.80;;;1.50;;
72092;SDS011;59965;48.192;11.618;2022-08-01T10:44:37;4.97;;;2.17;;
72092;SDS011;59965;48.192;11.618;2022-08-01T10:47:08;2.50;;;1.60;;
72092;SDS011;59965;48.192;11.618;2022-08-01T10:49:36;1.77;;;1.30;;
72092;SDS011;59965;48.192;11.618;2022-08-01T10:52:18;2.60;;;1.53;;
72092;SDS011;59965;48.192;11.618;2022-08-01T10:54:44;1.40;;;1.00;;
72092;SDS011;59965;48.192;11.618;2022-08-01T10:57:10;4.17;;;1.33;;
72092;SDS011;59965;48.192;11.618;2022-08-01T10:59:47;1.53;;;0.90;;
72092;SDS011;59965;48.192;11.618;2022-08-01T11:02:19;1.60;;;1.30;;
72092;SDS011;59965;48.192;11.618;2022-08-01T11:04:55;2.37;;;1.80;;
72092;SDS011;59965;48.192;11.618;2022-08-01T11:07:24;2.70;;;1.60;;
72092;SDS011;59965;48.192;11.618;2022-08-01T11:13:09;6.00;;;1.67;;
72092;SDS011;59965;48.192;11.618;2022-08-01T11:15:36;3.33;;;1.27;;
72092;SDS011;59965;48.192;11.618;2022-08-01T11:18:03;1.67;;;1.13;;
72092;SDS011;59965;48.192;11.618;2022-08-01T11:21:00;1.03;;;0.80;;
72092;SDS011;59965;48.192;11.618;2022-08-01T11:23:27;2.00;;;1.17;;
72092;SDS011;59965;48.192;11.618;2022-08-01T11:28:20;2.40;;;1.30;;
72092;SDS011;59965;48.192;11.618;2022-08-01T11:38:36;2.07;;;1.50;;
72092;SDS011;59965;48.192;11.618;2022-08-01T11:46:50;1.63;;;1.00;;
72092;SDS011;59965;48.192;11.618;2022-08-01T11:49:23;1.60;;;1.50;;
72092;SDS011;59965;48.192;11.618;2022-08-01T11:51:56;2.60;;;1.10;;
72092;SDS011;59965;48.192;11.618;2022-08-01T11:54:29;4.10;;;1.30;;
72092;SDS011;59965;48.192;11.618;2022-08-01T11:57:01;1.30;;;1.10;;
72092;SDS011;59965;48.192;11.618;2022-08-01T11:59:35;1.90;;;1.00;;
72092;SDS011;59965;48.192;11.618;2022-08-01T12:02:14;1.63;;;0.87;;
72092;SDS011;59965;48.192;11.618;2022-08-01T12:04:52;1.60;;;1.10;;
72092;SDS011;59965;48.192;11.618;2022-08-01T12:07:22;2.53;;;0.90;;
72092;SDS011;59965;48.192;11.618;2022-08-01T12:09:56;3.37;;;1.10;;
72092;SDS011;59965;48.192;11.618;2022-08-01T12:12:24;3.73;;;1.20;;
72092;SDS011;59965;48.192;11.618;2022-08-01T12:14:53;1.93;;;1.17;;
72092;SDS011;59965;48.192;11.618;2022-08-01T12:17:27;1.70;;;1.10;;
72092;SDS011;59965;48.192;11.618;2022-08-01T12:19:53;1.87;;;0.90;;
72092;SDS011;59965;48.192;11.618;2022-08-01T12:22:20;1.33;;;1.07;;
72092;SDS011;59965;48.192;11.618;2022-08-01T12:24:47;2.27;;;1.40;;
72092;SDS011;59965;48.192;11.618;2022-08-01T12:27:13;1.70;;;0.97;;
72092;SDS011;59965;48.192;11.618;2022-08-01T12:29:49;1.77;;;1.40;;
72092;SDS011;59965;48.192;11.618;2022-08-01T12:32:28;2.30;;;1.80;;
72092;SDS011;59965;48.192;11.618;2022-08-01T12:35:01;1.43;;;1.30;;
72092;SDS011;59965;48.192;11.618;2022-08-01T12:37:36;2.50;;;1.30;;
72092;SDS011;59965;48.192;11.618;2022-08-01T12:40:14;1.43;;;0.97;;
72092;SDS011;59965;48.192;11.618;2022-08-01T12:42:43;3.87;;;0.80;;
72092;SDS011;59965;48.192;11.618;2022-08-01T12:45:12;4.20;;;1.10;;
72092;SDS011;59965;48.192;11.618;2022-08-01T12:47:39;9.90;;;1.40;;
72092;SDS011;59965;48.192;11.618;2022-08-01T12:50:16;3.70;;;1.30;;
72092;SDS011;59965;48.192;11.618;2022-08-01T12:52:45;1.10;;;0.80;;
72092;SDS011;59965;48.192;11.618;2022-08-01T12:55:13;1.40;;;0.90;;
72092;SDS011;59965;48.192;11.618;2022-08-01T12:57:43;1.70;;;1.10;;
72092;SDS011;59965;48.192;11.618;2022-08-01T13:00:12;2.23;;;1.23;;
72092;SDS011;59965;48.192;11.618;2022-08-01T13:02:40;1.30;;;1.00;;
72092;SDS011;59965;48.192;11.618;2022-08-01T13:05:06;1.63;;;1.20;;
72092;SDS011;59965;48.192;11.618;2022-08-01T13:07:34;2.20;;;0.97;;
72092;SDS011;59965;48.192;11.618;2022-08-01T13:10:06;1.93;;;1.10;;
72092;SDS011;59965;48.192;11.618;2022-08-01T13:12:32;2.13;;;1.10;;
72092;SDS011;59965;48.192;11.618;2022-08-01T13:14:59;1.33;;;1.10;;
72092;SDS011;59965;48.192;11.618;2022-08-01T13:17:34;1.57;;;0.90;;
72092;SDS011;59965;48.192;11.618;2022-08-01T13:20:05;3.30;;;1.30;;
72092;SDS011;59965;48.192;11.618;2022-08-01T13:22:32;3.23;;;1.17;;
72092;SDS011;59965;48.192;11.618;2022-08-01T13:25:14;3.97;;;1.50;;
72092;SDS011;59965;48.192;11.618;2022-08-01T13:27:40;2.40;;;1.23;;
72092;SDS011;59965;48.192;11.618;2022-08-01T13:30:16;2.57;;;1.03;;
72092;SDS011;59965;48.192;11.618;2022-08-01T13:32:44;1.50;;;1.10;;
72092;SDS011;59965;48.192;11.618;2022-08-01T13:35:26;3.80;;;1.47;;
72092;SDS011;59965;48.192;11.618;2022-08-01T13:37:52;5.20;;;1.63;;
72092;SDS011;59965;48.192;11.618;2022-08-01T13:40:26;2.90;;;1.10;;
72092;SDS011;59965;48.192;11.618;2022-08-01T13:42:53;2.10;;;1.27;;
72092;SDS011;59965;48.192;11.618;2022-08-01T13:45:22;1.77;;;0.90;;
72092;SDS011;59965;48.192;11.618;2022-08-01T13:47:48;2.80;;;1.10;;
72092;SDS011;59965;48.192;11.618;2022-08-01T13:50:14;1.20;;;0.87;;
72092;SDS011;59965;48.192;11.618;2022-08-01T13:52:41;1.10;;;0.70;;
72092;SDS011;59965;48.192;11.618;2022-08-01T13:55:07;2.20;;;0.83;;
72092;SDS011;59965;48.192;11.618;2022-08-01T13:57:33;2.37;;;0.87;;
72092;SDS011;59965;48.192;11.618;2022-08-01T13:59:58;2.10;;;0.50;;
72092;SDS011;59965;48.192;11.618;2022-08-01T14:02:25;1.73;;;0.90;;
72092;SDS011;59965;48.192;11.618;2022-08-01T14:04:52;0.97;;;0.80;;
72092;SDS011;59965;48.192;11.618;2022-08-01T14:07:19;1.27;;;0.80;;
72092;SDS011;59965;48.192;11.618;2022-08-01T14:09:45;1.40;;;0.73;;
72092;SDS011;59965;48.192;11.618;2022-08-01T14:12:11;2.33;;;0.80;;
72092;SDS011;59965;48.192;11.618;2022-08-01T14:14:36;2.07;;;0.90;;
72092;SDS011;59965;48.192;11.618;2022-08-01T14:17:03;2.80;;;0.83;;
72092;SDS011;59965;48.192;11.618;2022-08-01T14:19:29;2.17;;;1.43;;
72092;SDS011;59965;48.192;11.618;2022-08-01T14:21:55;8.27;;;1.53;;
72092;SDS011;59965;48.192;11.618;2022-08-01T14:24:22;2.07;;;0.90;;
72092;SDS011;59965;48.192;11.618;2022-08-01T14:26:48;2.20;;;1.00;;
72092;SDS011;59965;48.192;11.618;2022-08-01T14:29:14;2.07;;;1.20;;
72092;SDS011;59965;48.192;11.618;2022-08-01T14:31:40;2.03;;;0.90;;
72092;SDS011;59965;48.192;11.618;2022-08-01T14:34:06;2.37;;;1.10;;
72092;SDS011;59965;48.192;11.618;2022-08-01T14:36:31;1.77;;;1.20;;
72092;SDS011;59965;48.192;11.618;2022-08-01T14:38:57;1.30;;;1.03;;
72092;SDS011;59965;48.192;11.618;2022-08-01T14:41:23;1.83;;;1.20;;
72092;SDS011;59965;48.192;11.618;2022-08-01T14:43:49;1.60;;;1.10;;
72092;SDS011;59965;48.192;11.618;2022-08-01T14:46:15;3.00;;;1.17;;
72092;SDS011;59965;48.192;11.618;2022-08-01T14:48:40;2.00;;;1.20;;
72092;SDS011;59965;48.192;11.618;2022-08-01T14:51:06;2.10;;;1.23;;
72092;SDS011;59965;48.192;11.618;2022-08-01T14:53:32;2.17;;;1.03;;
72092;SDS011;59965;48.192;11.618;2022-08-01T14:56:00;2.90;;;1.37;;
72092;SDS011;59965;48.192;11.618;2022-08-01T14:58:25;1.33;;;1.10;;
72092;SDS011;59965;48.192;11.618;2022-08-01T15:00:51;2.23;;;1.10;;
72092;SDS011;59965;48.192;11.618;2022-08-01T15:03:19;1.57;;;1.03;;
72092;SDS011;59965;48.192;11.618;2022-08-01T15:05:46;3.67;;;1.10;;
72092;SDS011;59965;48.192;11.618;2022-08-01T15:08:11;1.00;;;0.90;;
72092;SDS011;59965;48.192;11.618;2022-08-01T15:10:37;1.33;;;0.90;;